Time;durP1;ratioP1;P1;durP2;ratioP2;P2;SDS_P1;SDS_P2;PMS_P1;PMS_P2;Temp;Humidity;BMP_temperature;BMP_pressure;BME280_temperature;BME280_humidity;BME280_pressure;Samples;Min_cycle;Max_cycle;Signal;HPM_P1;HPM_P2
2022/04/23 00:00:27;;;;;;;28.65;21.73;;;;;;;7.30;100.00;98722.00;1734204;81;20986;-66
2022/04/23 00:02:59;;;;;;;29.40;21.17;;;;;;;7.25;100.00;98717.42;1742116;82;20892;-66
2022/04/23 00:05:26;;;;;;;29.67;23.15;;;;;;;7.21;100.00;98715.50;1708342;84;21007;-61
2022/04/23 00:07:53;;;;;;;33.30;22.10;;;;;;;7.17;100.00;98710.38;1742162;82;21094;-65
2022/04/23 00:10:22;;;;;;;31.75;21.37;;;;;;;7.14;100.00;98702.88;1711066;83;21343;-64
2022/04/23 00:12:50;;;;;;;29.32;22.73;;;;;;;7.15;100.00;98689.80;1712501;82;20889;-68
2022/04/23 00:15:21;;;;;;;31.40;21.07;;;;;;;7.14;100.00;98698.34;1712613;83;21498;-68
2022/04/23 00:17:49;;;;;;;30.82;21.40;;;;;;;7.11;100.00;98695.39;1712488;83;20912;-67
2022/04/23 00:20:18;;;;;;;24.70;19.17;;;;;;;7.08;100.00;98690.83;1712621;83;20909;-63
2022/04/23 00:22:45;;;;;;;30.37;19.87;;;;;;;7.07;100.00;98681.73;1673237;83;21303;-66
2022/04/23 00:25:13;;;;;;;33.02;22.35;;;;;;;7.08;100.00;98694.83;1712578;83;20944;-66
2022/04/23 00:27:39;;;;;;;21.57;16.25;;;;;;;7.07;100.00;98691.06;1712744;83;21498;-67
2022/04/23 00:30:08;;;;;;;29.67;23.12;;;;;;;7.01;100.00;98696.89;1712565;82;20896;-66
2022/04/23 00:32:37;;;;;;;30.10;21.93;;;;;;;7.00;100.00;98691.26;1712863;83;20976;-66
2022/04/23 00:35:06;;;;;;;34.10;21.37;;;;;;;6.98;100.00;98699.23;1712631;83;20931;-64
2022/04/23 00:37:34;;;;;;;31.57;23.70;;;;;;;6.95;100.00;98691.21;1712469;83;20940;-66
2022/04/23 00:40:06;;;;;;;32.15;23.42;;;;;;;6.94;100.00;98693.61;1717587;81;20952;-66
2022/04/23 00:42:31;;;;;;;30.90;22.95;;;;;;;6.93;100.00;98699.98;1727316;83;20927;-67
2022/04/23 00:44:58;;;;;;;35.78;23.40;;;;;;;6.90;100.00;98695.16;1727170;81;21563;-64
2022/04/23 00:47:24;;;;;;;34.65;21.62;;;;;;;6.87;100.00;98692.47;1698866;83;21276;-66
2022/04/23 00:49:52;;;;;;;33.85;24.25;;;;;;;6.87;100.00;98682.33;1727189;83;21000;-65
2022/04/23 00:52:20;;;;;;;;;;;;;;;6.87;100.00;98677.80;1729802;83;20976;-66
2022/04/23 00:54:47;;;;;;;34.45;24.35;;;;;;;6.85;100.00;98676.44;1698912;83;20431;-66
2022/04/23 00:57:14;;;;;;;31.33;22.20;;;;;;;6.85;100.00;98687.11;1727304;83;20991;-66
2022/04/23 00:59:40;;;;;;;33.25;22.42;;;;;;;6.82;100.00;98690.28;1727157;83;21281;-64
2022/04/23 01:02:08;;;;;;;33.08;22.70;;;;;;;6.83;100.00;98676.67;1749967;81;20876;-66
2022/04/23 01:04:36;;;;;;;35.28;21.60;;;;;;;6.81;100.00;98676.65;1790160;80;20912;-66
2022/04/23 01:07:05;;;;;;;37.77;23.60;;;;;;;6.79;100.00;98671.58;1790345;80;20893;-65
2022/04/23 01:09:32;;;;;;;32.25;24.47;;;;;;;6.78;100.00;98664.63;1778664;80;21078;-65
2022/04/23 01:11:59;;;;;;;27.98;22.22;;;;;;;6.76;100.00;98664.09;1740705;82;21248;-65
2022/04/23 01:14:27;;;;;;;29.67;23.00;;;;;;;6.68;100.00;98655.72;1740389;82;21410;-65
2022/04/23 01:16:54;;;;;;;33.42;23.95;;;;;;;6.61;100.00;98656.73;1740410;82;21022;-65
2022/04/23 01:19:23;;;;;;;35.20;23.98;;;;;;;6.57;100.00;98646.27;1740743;82;20957;-65
2022/04/23 01:21:51;;;;;;;35.65;24.40;;;;;;;6.55;100.00;98648.91;1740757;82;21571;-65
2022/04/23 01:24:19;;;;;;;36.13;24.33;;;;;;;6.52;100.00;98640.09;1740769;82;22024;-65
2022/04/23 01:26:45;;;;;;;35.15;25.50;;;;;;;6.49;100.00;98635.23;1740406;82;20961;-64
2022/04/23 01:29:15;;;;;;;29.67;22.75;;;;;;;6.50;100.00;98639.52;1740441;82;20903;-66
2022/04/23 01:31:43;;;;;;;33.55;25.45;;;;;;;6.47;100.00;98640.83;1740505;82;20970;-66
2022/04/23 01:34:10;;;;;;;39.08;24.82;;;;;;;6.47;100.00;98632.83;1740583;82;21006;-65
2022/04/23 01:36:37;;;;;;;35.45;26.05;;;;;;;6.44;100.00;98624.81;1740536;82;21201;-66
2022/04/23 01:39:04;;;;;;;32.95;22.85;;;;;;;6.46;100.00;98623.74;1740561;82;20974;-66
2022/04/23 01:41:31;;;;;;;37.95;28.07;;;;;;;6.45;100.00;98622.94;1743195;81;20965;-65
2022/04/23 01:43:59;;;;;;;35.55;24.92;;;;;;;6.47;100.00;98627.50;1744200;82;20931;-65
2022/04/23 01:46:26;;;;;;;40.35;21.23;;;;;;;6.45;100.00;98626.94;1744063;82;20894;-64
2022/04/23 01:48:52;;;;;;;35.88;25.32;;;;;;;6.46;100.00;98627.20;1743982;82;21280;-65
2022/04/23 01:51:20;;;;;;;33.05;23.07;;;;;;;6.48;100.00;98630.44;1743810;82;20871;-66
2022/04/23 01:53:46;;;;;;;29.70;22.20;;;;;;;6.46;100.00;98623.20;1743844;82;20930;-66
2022/04/23 01:56:13;;;;;;;30.85;23.77;;;;;;;6.48;100.00;98632.30;1743986;82;20941;-65
2022/04/23 01:58:40;;;;;;;32.17;22.48;;;;;;;6.46;100.00;98625.88;1743898;82;20942;-65
2022/04/23 02:01:07;;;;;;;26.75;17.12;;;;;;;6.45;100.00;98620.28;1743750;82;21340;-66
2022/04/23 02:03:35;;;;;;;29.42;19.80;;;;;;;6.43;100.00;98609.05;1743291;82;20986;-63
2022/04/23 02:06:03;;;;;;;26.27;18.60;;;;;;;6.44;100.00;98608.81;1743313;82;20983;-65
2022/04/23 02:08:30;;;;;;;29.57;19.40;;;;;;;6.46;100.00;98620.54;1743372;82;21022;-66
2022/04/23 02:10:58;;;;;;;24.05;19.87;;;;;;;6.44;100.00;98623.98;1743457;82;20994;-64
2022/04/23 02:13:26;;;;;;;26.30;17.67;;;;;;;6.44;100.00;98619.48;1743525;82;21139;-63
2022/04/23 02:15:53;;;;;;;25.95;17.42;;;;;;;6.40;100.00;98598.36;1743471;82;21046;-67
2022/04/23 02:18:21;;;;;;;26.42;17.98;;;;;;;6.39;100.00;98604.76;1743527;82;21010;-66
2022/04/23 02:20:52;;;;;;;23.18;17.17;;;;;;;6.40;100.00;98609.02;1743366;82;20935;-65
2022/04/23 02:23:19;;;;;;;24.55;16.87;;;;;;;6.39;100.00;98606.09;1743563;82;20919;-64
2022/04/23 02:25:46;;;;;;;24.37;18.70;;;;;;;6.36;100.00;98589.78;1743274;82;21239;-66
2022/04/23 02:28:14;;;;;;;15.20;11.40;;;;;;;6.33;100.00;98573.77;1743494;82;20943;-66
2022/04/23 02:30:44;;;;;;;22.07;15.25;;;;;;;6.30;100.00;98546.81;1743397;82;21548;-65
2022/04/23 02:33:11;;;;;;;23.27;16.55;;;;;;;6.31;100.00;98565.20;1760458;81;20935;-65
2022/04/23 02:35:39;;;;;;;20.80;16.65;;;;;;;6.30;100.00;98576.13;1734630;82;20995;-66
2022/04/23 02:38:07;;;;;;;19.32;15.68;;;;;;;6.29;100.00;98585.97;1734809;82;21132;-68
2022/04/23 02:40:34;;;;;;;22.35;16.57;;;;;;;6.30;100.00;98589.46;1739555;81;20910;-67
2022/04/23 02:43:03;;;;;;;16.80;13.58;;;;;;;6.29;100.00;98591.30;1743245;82;21034;-67
2022/04/23 02:45:30;;;;;;;18.63;13.53;;;;;;;6.28;100.00;98585.70;1743282;82;20963;-64
2022/04/23 02:47:57;;;;;;;22.58;15.45;;;;;;;6.28;100.00;98587.56;1743153;82;21244;-67
2022/04/23 02:50:30;;;;;;;;;;;;;;;6.28;100.00;98591.03;1745770;82;20979;-63
2022/04/23 02:52:57;;;;;;;23.70;15.93;;;;;;;6.26;100.00;98593.66;1742973;82;20142;-67
2022/04/23 02:55:27;;;;;;;16.10;13.90;;;;;;;6.27;100.00;98589.94;1743362;82;20912;-64
2022/04/23 02:57:56;;;;;;;16.10;11.55;;;;;;;6.27;100.00;98591.27;1743175;82;21002;-67
2022/04/23 03:00:23;;;;;;;16.65;10.25;;;;;;;6.25;100.00;98594.70;1741681;82;21066;-67
2022/04/23 03:02:52;;;;;;;18.00;11.65;;;;;;;6.23;100.00;98594.44;1734960;82;22449;-66
2022/04/23 03:05:19;;;;;;;18.75;13.75;;;;;;;6.24;100.00;98596.56;1758822;81;20885;-67
2022/04/23 03:07:47;;;;;;;19.10;13.15;;;;;;;6.22;100.00;98590.67;1758741;81;20963;-68
2022/04/23 03:10:16;;;;;;;15.72;13.03;;;;;;;6.18;100.00;98592.25;1755949;81;20936;-67
2022/04/23 03:12:45;;;;;;;17.87;14.13;;;;;;;6.17;100.00;98587.95;1753983;81;21530;-66
2022/04/23 03:15:17;;;;;;;20.10;14.10;;;;;;;6.16;100.00;98585.02;1753822;81;21544;-67
2022/04/23 03:17:45;;;;;;;16.97;13.22;;;;;;;6.15;100.00;98584.22;1753818;81;20991;-65
2022/04/23 03:20:14;;;;;;;19.27;14.63;;;;;;;6.18;100.00;98585.59;1753925;81;20943;-67
2022/04/23 03:22:42;;;;;;;21.48;13.70;;;;;;;6.19;100.00;98583.98;1753792;81;20994;-66
2022/04/23 03:25:10;;;;;;;;;;;;;;;6.20;100.00;98584.28;1756562;81;20896;-65
2022/04/23 03:27:38;;;;;;;18.55;14.93;;;;;;;6.21;100.00;98579.22;1753976;81;20149;-65
2022/04/23 03:30:07;;;;;;;21.65;13.95;;;;;;;6.20;100.00;98582.16;1754165;81;20975;-64
2022/04/23 03:32:35;;;;;;;17.25;13.80;;;;;;;6.18;100.00;98582.39;1754017;81;20979;-66
2022/04/23 03:35:05;;;;;;;16.50;11.57;;;;;;;6.18;100.00;98583.72;1754243;81;21569;-68
2022/04/23 03:37:35;;;;;;;16.37;14.18;;;;;;;6.14;100.00;98571.94;1754142;81;20931;-67
2022/04/23 03:40:28;;;;;;;21.20;17.12;;;;;;;6.17;100.00;98582.63;1730716;81;21146;-67
2022/04/23 03:42:55;;;;;;;26.85;15.93;;;;;;;6.16;100.00;98574.37;1738666;82;21058;-67
2022/04/23 03:45:24;;;;;;;27.87;16.02;;;;;;;6.15;100.00;98585.56;1728136;83;21014;-68
2022/04/23 03:47:52;;;;;;;26.75;18.67;;;;;;;6.14;100.00;98575.94;1727976;83;21029;-68
2022/04/23 03:50:20;;;;;;;21.40;16.75;;;;;;;6.18;100.00;98585.59;1728019;83;21019;-66
2022/04/23 03:52:48;;;;;;;24.92;15.60;;;;;;;6.16;100.00;98577.83;1728099;83;21271;-67
2022/04/23 03:55:15;;;;;;;20.17;13.25;;;;;;;6.17;100.00;98583.95;1727787;83;20987;-66
2022/04/23 03:57:50;;;;;;;13.80;9.18;;;;;;;6.21;100.00;98583.22;1728187;83;21027;-66
2022/04/23 04:00:20;;;;;;;20.17;13.75;;;;;;;6.18;100.00;98579.72;1727761;83;21002;-66
2022/04/23 04:02:46;;;;;;;16.85;12.15;;;;;;;6.21;100.00;98575.22;1722788;83;20877;-67
2022/04/23 04:05:13;;;;;;;14.18;11.75;;;;;;;6.22;100.00;98571.52;1710008;84;21355;-66
2022/04/23 04:07:45;;;;;;;16.60;12.05;;;;;;;6.26;100.00;98566.48;1709905;84;21048;-67
2022/04/23 04:10:14;;;;;;;18.82;13.48;;;;;;;6.29;100.00;98569.17;1707978;83;21023;-67
2022/04/23 04:12:42;;;;;;;17.25;13.28;;;;;;;6.31;100.00;98565.20;1706833;84;21713;-65
2022/04/23 04:15:12;;;;;;;15.13;11.93;;;;;;;6.36;100.00;98569.79;1706951;84;21494;-65
2022/04/23 04:17:40;;;;;;;14.13;11.12;;;;;;;6.41;100.00;98551.98;1707122;84;21138;-66
2022/04/23 04:20:12;;;;;;;20.12;12.95;;;;;;;6.49;100.00;98561.38;1724383;82;21026;-66
2022/04/23 04:22:40;;;;;;;15.45;11.97;;;;;;;6.63;100.00;98548.47;1721705;83;20969;-65
2022/04/23 04:25:09;;;;;;;13.93;11.80;;;;;;;6.71;100.00;98549.88;1739964;82;20943;-67
2022/04/23 04:27:37;;;;;;;13.85;9.60;;;;;;;6.67;100.00;98544.25;1721721;83;20910;-68
2022/04/23 04:30:07;;;;;;;13.45;10.20;;;;;;;6.63;100.00;98537.27;1753239;81;21390;-65
2022/04/23 04:32:35;;;;;;;15.43;11.33;;;;;;;6.63;100.00;98534.60;1739937;81;21548;-65
2022/04/23 04:35:04;;;;;;;18.02;11.55;;;;;;;6.67;100.00;98530.12;1721540;83;20907;-67
2022/04/23 04:37:32;;;;;;;18.17;9.63;;;;;;;6.73;100.00;98539.76;1740128;82;20895;-68
2022/04/23 04:40:00;;;;;;;;;;;;;;;6.80;100.00;98521.16;1724125;83;21535;-67
2022/04/23 04:42:28;;;;;;;13.43;10.50;;;;;;;6.94;100.00;98534.88;1721039;83;20139;-67
2022/04/23 04:44:55;;;;;;;11.48;9.65;;;;;;;7.02;100.00;98534.94;1752699;81;20869;-67
2022/04/23 04:47:24;;;;;;;13.28;8.38;;;;;;;7.00;100.00;98535.72;1737008;82;20910;-66
2022/04/23 04:49:52;;;;;;;11.22;8.28;;;;;;;6.98;100.00;98528.48;1720852;83;20916;-67
2022/04/23 04:52:19;;;;;;;13.13;9.73;;;;;;;7.00;100.00;98524.51;1736900;82;21004;-66
2022/04/23 04:54:47;;;;;;;14.07;10.20;;;;;;;7.09;100.00;98516.31;1721177;83;20845;-67
2022/04/23 04:57:13;;;;;;;9.88;7.10;;;;;;;7.16;100.00;98520.10;1752329;82;20921;-64
2022/04/23 04:59:40;;;;;;;10.45;9.18;;;;;;;7.16;100.00;98515.30;1720954;83;20940;-67
2022/04/23 05:02:08;;;;;;;11.43;9.93;;;;;;;7.17;100.00;98515.56;1739726;82;21012;-66
2022/04/23 05:04:36;;;;;;;11.83;9.15;;;;;;;7.16;100.00;98511.30;1740107;82;20835;-67
2022/04/23 05:07:04;;;;;;;11.53;7.97;;;;;;;7.18;100.00;98510.48;1712903;82;21352;-67
2022/04/23 05:09:32;;;;;;;12.50;9.55;;;;;;;7.16;100.00;98505.42;1739102;81;20965;-67
2022/04/23 05:12:00;;;;;;;14.95;8.83;;;;;;;7.24;100.00;98512.14;1736876;82;20926;-67
2022/04/23 05:14:28;;;;;;;10.65;7.40;;;;;;;7.27;100.00;98511.08;1736629;82;20968;-67
2022/04/23 05:16:56;;;;;;;10.78;7.80;;;;;;;7.31;100.00;98494.03;1736665;82;20925;-67
2022/04/23 05:19:22;;;;;;;15.23;9.83;;;;;;;7.38;100.00;98503.95;1737086;82;21328;-67
2022/04/23 05:21:50;;;;;;;8.55;7.37;;;;;;;7.49;100.00;98504.80;1737652;82;21523;-67
2022/04/23 05:24:16;;;;;;;10.63;8.23;;;;;;;7.53;100.00;98514.45;1737479;82;20894;-65
2022/04/23 05:26:44;;;;;;;13.35;8.85;;;;;;;7.58;100.00;98509.94;1721010;83;21475;-66
2022/04/23 05:29:13;;;;;;;12.30;7.92;;;;;;;7.80;100.00;98515.65;1736890;82;20961;-67
2022/04/23 05:31:41;;;;;;;11.18;7.97;;;;;;;8.04;100.00;98516.02;1721063;82;20965;-68
2022/04/23 05:34:07;;;;;;;12.70;9.30;;;;;;;8.34;100.00;98520.09;1736877;82;20984;-66
2022/04/23 05:36:36;;;;;;;9.88;8.28;;;;;;;8.66;100.00;98518.31;1721158;83;21460;-68
2022/04/23 05:39:02;;;;;;;12.88;8.53;;;;;;;8.97;100.00;98522.60;1737040;82;21472;-66
2022/04/23 05:41:30;;;;;;;14.13;8.05;;;;;;;8.89;100.00;98527.16;1721033;82;21086;-65
2022/04/23 05:43:58;;;;;;;14.33;8.43;;;;;;;9.03;100.00;98513.23;1736791;82;22102;-69
2022/04/23 05:46:24;;;;;;;7.10;5.97;;;;;;;9.25;100.00;98521.77;1720896;83;20845;-68
2022/04/23 05:48:51;;;;;;;10.35;6.58;;;;;;;9.52;100.00;98517.97;1736802;82;20906;-67
2022/04/23 05:51:21;;;;;;;8.40;6.75;;;;;;;9.57;100.00;98535.37;1720992;83;21499;-66
2022/04/23 05:53:48;;;;;;;9.40;5.40;;;;;;;9.50;100.00;98532.17;1734342;82;20961;-68
2022/04/23 05:56:15;;;;;;;11.10;6.42;;;;;;;9.24;100.00;98518.84;1710231;82;21155;-68
2022/04/23 05:58:44;;;;;;;14.03;7.87;;;;;;;9.14;100.00;98512.95;1736824;82;20909;-66
2022/04/23 06:01:10;;;;;;;9.53;6.33;;;;;;;9.10;100.00;98526.60;1737913;82;20919;-65
2022/04/23 06:03:38;;;;;;;11.85;7.45;;;;;;;9.11;100.00;98524.72;1740128;82;20979;-67
2022/04/23 06:06:06;;;;;;;8.15;5.90;;;;;;;9.05;100.00;98537.86;1790432;80;20834;-63
2022/04/23 06:08:34;;;;;;;12.98;9.35;;;;;;;8.88;100.00;98525.54;1790484;80;20870;-66
2022/04/23 06:11:02;;;;;;;12.82;8.40;;;;;;;8.82;100.00;98516.43;1756704;80;21002;-65
2022/04/23 06:13:29;;;;;;;5.70;5.08;;;;;;;8.76;100.00;98511.08;1736827;82;21504;-66
2022/04/23 06:15:56;;;;;;;16.02;9.45;;;;;;;8.74;100.00;98516.43;1721352;83;21447;-65
2022/04/23 06:18:25;;;;;;;10.80;7.33;;;;;;;8.82;100.00;98518.59;1736674;82;21402;-67
2022/04/23 06:20:52;;;;;;;12.90;10.60;;;;;;;8.87;100.00;98511.08;1721057;83;22268;-67
2022/04/23 06:23:20;;;;;;;6.55;5.22;;;;;;;8.95;100.00;98517.25;1752494;81;21031;-67
2022/04/23 06:25:48;;;;;;;11.35;8.15;;;;;;;8.92;100.00;98500.40;1736799;82;20977;-67
2022/04/23 06:28:14;;;;;;;12.00;7.90;;;;;;;9.03;100.00;98506.54;1721078;83;21446;-67
2022/04/23 06:30:42;;;;;;;10.72;8.13;;;;;;;9.10;100.00;98512.42;1736855;82;20976;-68
2022/04/23 06:33:10;;;;;;;7.53;6.03;;;;;;;9.14;100.00;98484.84;1721088;83;20920;-65
2022/04/23 06:35:38;;;;;;;14.65;8.48;;;;;;;9.18;100.00;98515.34;1736704;81;21531;-67
2022/04/23 06:38:06;;;;;;;9.38;6.35;;;;;;;9.27;100.00;98506.78;1721246;83;20940;-66
2022/04/23 06:40:35;;;;;;;9.60;6.80;;;;;;;9.26;100.00;98503.82;1736686;81;20909;-68
2022/04/23 06:43:02;;;;;;;12.35;8.85;;;;;;;9.28;100.00;98503.81;1727707;81;20896;-68
2022/04/23 06:45:31;;;;;;;9.25;5.90;;;;;;;9.30;100.00;98492.30;1729651;83;21255;-67
2022/04/23 06:48:06;;;;;;;7.47;6.35;;;;;;;9.26;100.00;98455.63;1731319;81;20937;-66
2022/04/23 06:50:35;;;;;;;10.30;7.12;;;;;;;9.27;100.00;98496.07;1731167;80;21414;-69
2022/04/23 06:53:04;;;;;;;10.75;6.95;;;;;;;9.35;100.00;98482.91;1731567;83;20937;-67
2022/04/23 06:55:32;;;;;;;9.05;6.90;;;;;;;9.48;100.00;98488.27;1731316;80;20886;-68
2022/04/23 06:57:58;;;;;;;7.60;5.75;;;;;;;9.55;100.00;98495.45;1731230;83;21272;-67
2022/04/23 07:00:27;;;;;;;10.03;6.45;;;;;;;9.59;100.00;98464.37;1731641;80;20965;-68
2022/04/23 07:02:53;;;;;;;10.18;7.55;;;;;;;9.77;100.00;98485.72;1767462;80;21019;-66
2022/04/23 07:05:20;;;;;;;7.67;6.15;;;;;;;9.95;100.00;98481.64;1766066;81;20930;-68
2022/04/23 07:07:58;;;;;;;;;;;;;;;10.05;100.00;98474.89;1768583;81;20867;-68
2022/04/23 07:10:26;;;;;;;;;;;;;;;10.29;100.00;98468.34;1768584;81;20828;-69
2022/04/23 07:12:53;;;;;;;7.50;5.90;;;;;;;10.46;100.00;98462.60;1799066;79;20142;-68
2022/04/23 07:15:21;;;;;;;13.80;7.58;;;;;;;10.65;100.00;98464.05;1799049;79;21061;-66
2022/04/23 07:17:50;;;;;;;7.83;6.58;;;;;;;10.82;100.00;98473.59;1799088;79;20896;-68
2022/04/23 07:20:17;;;;;;;10.90;7.25;;;;;;;10.91;100.00;98461.96;1799172;79;21415;-67
2022/04/23 07:25:35;;;;;;;7.50;5.85;;;;;;;10.93;100.00;98462.48;1799033;79;21015;-70
2022/04/23 07:28:04;;;;;;;9.48;5.62;;;;;;;10.86;100.00;98461.22;1799179;79;20979;-69
2022/04/23 07:30:34;;;;;;;6.58;4.12;;;;;;;10.84;100.00;98445.92;1799176;79;20974;-67
2022/04/23 07:33:00;;;;;;;7.83;5.58;;;;;;;11.01;100.00;98441.48;1799077;79;21021;-70
2022/04/23 07:38:19;;;;;;;8.58;6.25;;;;;;;11.31;100.00;98451.09;1799140;79;21469;-68
2022/04/23 07:40:47;;;;;;;6.05;4.78;;;;;;;11.45;100.00;98449.88;1799014;79;20935;-69
2022/04/23 07:43:15;;;;;;;10.72;7.28;;;;;;;11.37;100.00;98418.52;1768870;79;20972;-68
2022/04/23 07:45:45;;;;;;;8.98;6.55;;;;;;;11.29;100.00;98449.23;1790857;80;20950;-70
2022/04/23 07:48:14;;;;;;;11.97;6.25;;;;;;;11.26;100.00;98451.95;1790674;79;21482;-68
2022/04/23 07:50:43;;;;;;;6.58;5.25;;;;;;;11.30;100.00;98446.27;1790569;79;20848;-71
2022/04/23 07:53:11;;;;;;;6.85;5.60;;;;;;;11.49;100.00;98445.00;1790699;80;20978;-69
2022/04/23 07:55:40;;;;;;;20.88;11.75;;;;;;;11.85;100.00;98421.69;1790402;80;21469;-70
2022/04/23 07:58:09;;;;;;;7.62;5.95;;;;;;;12.10;100.00;98448.00;1791126;79;21406;-68
2022/04/23 08:00:36;;;;;;;5.78;5.00;;;;;;;12.17;100.00;98433.64;1762645;80;21246;-68
2022/04/23 08:03:05;;;;;;;;;;;;;;;12.48;100.00;98436.69;1761827;81;20942;-69
2022/04/23 08:05:33;;;;;;;7.37;5.28;;;;;;;12.80;100.00;98422.98;1759478;81;20448;-68
2022/04/23 08:08:00;;;;;;;8.00;5.28;;;;;;;12.81;99.05;98448.27;1759399;81;20995;-69
2022/04/23 08:10:28;;;;;;;6.17;4.55;;;;;;;12.94;95.20;98433.79;1779999;80;21018;-67
2022/04/23 08:12:56;;;;;;;6.20;4.55;;;;;;;13.01;90.73;98430.95;1790700;80;21568;-69
2022/04/23 08:15:25;;;;;;;6.95;4.30;;;;;;;13.18;91.30;98443.86;1790613;80;21062;-68
2022/04/23 08:17:55;;;;;;;5.00;3.85;;;;;;;13.37;88.43;98449.17;1790634;79;20892;-70
2022/04/23 08:20:23;;;;;;;7.05;4.58;;;;;;;13.08;86.66;98442.14;1791543;80;21002;-68
2022/04/23 08:22:51;;;;;;;5.28;4.55;;;;;;;13.11;88.95;98459.61;1793508;80;20954;-69
2022/04/23 08:25:20;;;;;;;6.47;5.00;;;;;;;13.31;90.92;98449.58;1791669;80;21026;-68
2022/04/23 08:27:55;;;;;;;5.87;4.42;;;;;;;13.36;89.91;98442.19;1790690;80;20911;-69
2022/04/23 08:30:34;;;;;;;6.80;5.28;;;;;;;13.21;86.83;98447.84;1790618;80;21081;-68
2022/04/23 08:33:04;;;;;;;8.28;4.87;;;;;;;13.04;89.02;98433.60;1790556;80;21473;-69
2022/04/23 08:35:33;;;;;;;6.47;3.95;;;;;;;13.12;92.81;98433.45;1759729;79;21472;-71
2022/04/23 08:38:00;;;;;;;5.92;5.33;;;;;;;13.19;90.40;98432.52;1736239;81;21174;-68
2022/04/23 08:40:29;;;;;;;6.00;5.25;;;;;;;12.96;94.13;98434.27;1759393;81;20967;-66
2022/04/23 08:42:59;;;;;;;9.10;4.97;;;;;;;12.94;89.47;98410.89;1764097;80;22071;-70
2022/04/23 08:45:26;;;;;;;5.42;4.92;;;;;;;12.94;89.47;98410.89;1733053;82;20938;-68
2022/04/23 08:47:53;;;;;;;7.67;4.57;;;;;;;13.45;88.84;98391.89;1784545;80;21036;-68
2022/04/23 08:50:22;;;;;;;7.25;5.05;;;;;;;13.87;88.52;98418.23;1761653;81;21483;-67
2022/04/23 08:52:57;;;;;;;6.28;4.83;;;;;;;13.59;85.67;98410.73;1761797;81;21388;-70
2022/04/23 08:55:21;;;;;;;6.47;5.03;;;;;;;13.33;88.74;98421.77;1722076;82;21542;-67
2022/04/23 08:57:48;;;;;;;8.60;5.12;;;;;;;13.16;89.58;98413.71;1732976;82;20890;-68
2022/04/23 09:00:16;;;;;;;7.58;5.30;;;;;;;13.02;91.88;98406.16;1769858;81;21396;-69
2022/04/23 09:02:44;;;;;;;8.13;4.90;;;;;;;13.01;92.06;98413.45;1759046;79;20984;-72
2022/04/23 09:05:14;;;;;;;6.92;4.87;;;;;;;13.02;90.71;98403.47;1759402;81;20917;-70
2022/04/23 09:07:54;;;;;;;5.47;4.85;;;;;;;13.13;91.81;98406.75;1759124;81;20980;-68
2022/04/23 09:10:46;;;;;;;7.78;5.33;;;;;;;13.22;90.60;98428.67;1778237;80;21007;-69
2022/04/23 09:13:31;;;;;;;6.45;4.78;;;;;;;13.61;92.92;98415.83;1771329;81;20962;-70
2022/04/23 09:24:51;;;;;;;5.80;5.20;;;;;;;13.71;89.07;98420.45;1771110;81;20906;-70
2022/04/23 09:27:18;;;;;;;4.00;3.70;;;;;;;13.55;89.72;98408.93;1770970;81;21078;-71
2022/04/23 09:30:05;;;;;;;7.37;4.80;;;;;;;13.52;88.44;98392.80;1788151;80;22245;-69
2022/04/23 09:32:35;;;;;;;6.08;4.80;;;;;;;13.43;90.78;98411.59;1790341;80;25065;-69
2022/04/23 09:35:08;;;;;;;5.28;4.78;;;;;;;13.49;89.89;98402.30;1788361;80;20953;-69
2022/04/23 09:40:32;;;;;;;8.15;5.22;;;;;;;13.85;90.93;98405.60;1788979;80;20983;-68
2022/04/23 09:43:05;;;;;;;4.20;3.80;;;;;;;14.07;87.94;98387.31;1786877;79;21342;-71
2022/04/23 09:45:36;;;;;;;11.00;5.47;;;;;;;14.00;86.70;98399.63;1790708;80;20917;-69
2022/04/23 09:48:14;;;;;;;6.72;5.30;;;;;;;13.93;86.44;98398.69;1767181;80;20988;-71
2022/04/23 09:50:47;;;;;;;6.42;4.65;;;;;;;14.22;90.99;98393.46;1790648;80;20953;-69
2022/04/23 09:53:17;;;;;;;7.40;4.65;;;;;;;14.49;85.51;98394.68;1790643;80;20925;-69
2022/04/23 09:55:47;;;;;;;8.05;4.03;;;;;;;14.49;82.35;98383.88;1790442;80;21143;-68
2022/04/23 09:58:14;;;;;;;5.60;4.30;;;;;;;14.39;80.68;98367.15;1790580;80;21013;-69
2022/04/23 10:00:47;;;;;;;7.37;4.57;;;;;;;14.34;82.41;98390.45;1787878;79;20951;-70
2022/04/23 10:03:15;;;;;;;5.03;4.12;;;;;;;14.47;82.01;98376.64;1761110;80;20939;-70
2022/04/23 10:05:48;;;;;;;5.35;4.20;;;;;;;14.53;81.72;98376.80;1769629;81;21002;-68
2022/04/23 10:08:26;;;;;;;6.28;4.42;;;;;;;14.70;80.24;98386.09;1771229;81;21200;-68
2022/04/23 10:10:59;;;;;;;9.20;4.53;;;;;;;14.66;76.01;98383.23;1742130;81;21424;-69
2022/04/23 10:13:30;;;;;;;5.42;4.17;;;;;;;14.79;78.00;98376.14;1736767;81;20866;-67
2022/04/23 10:15:59;;;;;;;5.75;4.37;;;;;;;15.09;73.80;98348.05;1736997;82;20941;-68
2022/04/23 10:18:26;;;;;;;4.70;4.28;;;;;;;15.06;74.04;98377.06;1737082;82;20898;-69
2022/04/23 10:20:55;;;;;;;5.70;4.25;;;;;;;15.01;73.36;98359.87;1736603;82;21206;-70
2022/04/23 10:24:09;;;;;;;4.35;3.95;;;;;;;14.84;74.90;98361.14;1736943;82;20980;-69
2022/04/23 10:26:58;;;;;;;4.90;4.20;;;;;;;14.86;77.24;98369.74;1677022;85;21460;-69
2022/04/23 10:29:27;;;;;;;6.28;4.60;;;;;;;15.12;76.39;98366.38;1654445;85;20995;-70
2022/04/23 10:32:16;;;;;;;7.75;4.45;;;;;;;15.20;79.83;98381.81;1677251;85;20891;-69
2022/04/23 10:34:44;;;;;;;4.95;3.77;;;;;;;15.12;72.17;98380.67;1676562;85;21259;-69
2022/04/23 10:37:24;;;;;;;7.37;4.77;;;;;;;14.98;71.02;98355.09;1677083;85;20951;-69
2022/04/23 10:39:59;;;;;;;4.87;4.05;;;;;;;14.84;74.21;98373.86;1677146;85;20982;-70
2022/04/23 10:42:28;;;;;;;8.53;5.17;;;;;;;14.85;73.49;98368.16;1676956;85;20926;-69
2022/04/23 10:44:56;;;;;;;6.40;4.15;;;;;;;14.85;75.83;98370.07;1676890;85;20867;-66
2022/04/23 10:47:34;;;;;;;8.15;4.55;;;;;;;14.88;72.88;98335.11;1677018;85;21913;-69
2022/04/23 10:50:20;;;;;;;10.13;4.70;;;;;;;14.77;72.80;98375.12;1677032;85;21025;-69
2022/04/23 10:52:50;;;;;;;4.65;4.03;;;;;;;14.68;72.75;98363.47;1676930;84;20899;-70
2022/04/23 10:55:17;;;;;;;13.75;4.72;;;;;;;14.72;70.59;98358.23;1676835;85;20970;-70
2022/04/23 10:57:54;;;;;;;10.15;4.78;;;;;;;14.64;72.30;98358.43;1676975;85;20891;-70
2022/04/23 11:00:30;;;;;;;3.10;2.80;;;;;;;14.64;71.73;98351.67;1677176;85;20999;-70
2022/04/23 11:02:59;;;;;;;7.87;4.22;;;;;;;14.72;72.18;98344.19;1716334;82;20959;-69
2022/04/23 11:14:41;;;;;;;4.72;4.22;;;;;;;15.29;67.94;98329.94;1713919;82;20885;-68
2022/04/23 11:17:14;;;;;;;13.32;5.15;;;;;;;15.15;69.25;98344.12;1736746;82;21483;-67
2022/04/23 11:19:41;;;;;;;6.17;4.28;;;;;;;15.05;70.30;98350.59;1737046;82;20930;-68
2022/04/23 11:22:10;;;;;;;10.70;4.42;;;;;;;15.03;69.28;98334.45;1736700;81;21417;-67
2022/04/23 11:24:37;;;;;;;7.30;4.75;;;;;;;15.08;69.45;98335.11;1737967;82;20894;-67
2022/04/23 11:27:05;;;;;;;6.45;3.95;;;;;;;15.29;71.70;98340.75;1738763;82;21218;-68
2022/04/23 11:29:31;;;;;;;4.30;3.85;;;;;;;15.46;69.12;98329.70;1737176;82;20914;-66
2022/04/23 11:31:58;;;;;;;5.42;4.42;;;;;;;15.48;66.97;98332.34;1736782;81;20914;-68
2022/04/23 11:34:29;;;;;;;;;;;;;;;15.50;68.63;98332.82;1739499;82;20866;-67
2022/04/23 11:36:56;;;;;;;5.22;4.60;;;;;;;15.45;65.76;98323.52;1736740;82;20169;-67
2022/04/23 11:39:28;;;;;;;7.15;4.12;;;;;;;15.45;69.05;98318.10;1708069;82;20855;-70
2022/04/23 11:41:57;;;;;;;5.97;4.30;;;;;;;15.48;66.94;98319.38;1736852;82;20970;-68
2022/04/23 11:47:17;;;;;;;5.37;4.22;;;;;;;15.33;69.85;98320.06;1740772;82;28217;-69
2022/04/23 11:49:45;;;;;;;6.70;4.25;;;;;;;15.28;70.00;98319.42;1740519;81;20952;-68
2022/04/23 11:52:13;;;;;;;5.08;4.40;;;;;;;15.15;70.01;98315.17;1740603;82;21167;-68
2022/04/23 11:54:45;;;;;;;8.60;4.20;;;;;;;15.04;70.24;98309.02;1740388;82;21498;-68
2022/04/23 11:57:17;;;;;;;6.03;4.08;;;;;;;15.06;70.37;98306.80;1740628;82;21445;-69
2022/04/23 11:59:49;;;;;;;6.22;4.22;;;;;;;15.04;72.13;98303.61;1740678;82;20964;-68
2022/04/23 12:02:19;;;;;;;7.35;5.25;;;;;;;14.95;72.10;98315.77;1718644;82;21441;-68
2022/04/23 12:04:48;;;;;;;5.80;4.03;;;;;;;14.86;72.12;98298.72;1743662;82;21240;-67